sensor_id;sensor_type;location;lat;lon;timestamp;P1;durP1;ratioP1;P2;durP2;ratioP2
30303;SDS011;17112;48.636;10.152;2024-03-02T00:00:01;20.88;;;12.93;;
30303;SDS011;17112;48.636;10.152;2024-03-02T00:02:42;19.85;;;12.55;;
30303;SDS011;17112;48.636;10.152;2024-03-02T00:05:17;20.20;;;11.77;;
30303;SDS011;17112;48.636;10.152;2024-03-02T00:07:59;15.75;;;12.23;;
30303;SDS011;17112;48.636;10.152;2024-03-02T00:10:25;19.73;;;12.48;;
30303;SDS011;17112;48.636;10.152;2024-03-02T00:12:56;20.38;;;13.27;;
30303;SDS011;17112;48.636;10.152;2024-03-02T00:18:03;16.63;;;11.75;;
30303;SDS011;17112;48.636;10.152;2024-03-02T00:20:29;17.63;;;11.63;;
30303;SDS011;17112;48.636;10.152;2024-03-02T00:23:05;20.23;;;12.43;;
30303;SDS011;17112;48.636;10.152;2024-03-02T00:28:27;15.82;;;10.82;;
30303;SDS011;17112;48.636;10.152;2024-03-02T00:33:33;14.93;;;10.38;;
30303;SDS011;17112;48.636;10.152;2024-03-02T00:36:04;17.80;;;12.07;;
30303;SDS011;17112;48.636;10.152;2024-03-02T00:38:31;16.40;;;11.23;;
30303;SDS011;17112;48.636;10.152;2024-03-02T00:40:59;19.77;;;12.82;;
30303;SDS011;17112;48.636;10.152;2024-03-02T00:46:22;17.23;;;11.77;;
30303;SDS011;17112;48.636;10.152;2024-03-02T00:51:26;16.33;;;12.25;;
30303;SDS011;17112;48.636;10.152;2024-03-02T00:53:55;16.65;;;12.63;;
30303;SDS011;17112;48.636;10.152;2024-03-02T00:56:23;20.13;;;13.98;;
30303;SDS011;17112;48.636;10.152;2024-03-02T00:58:49;19.35;;;13.52;;
30303;SDS011;17112;48.636;10.152;2024-03-02T01:01:15;19.75;;;13.82;;
30303;SDS011;17112;48.636;10.152;2024-03-02T01:03:41;20.92;;;13.48;;
30303;SDS011;17112;48.636;10.152;2024-03-02T01:06:08;22.38;;;14.05;;
30303;SDS011;17112;48.636;10.152;2024-03-02T01:08:37;22.83;;;14.82;;
30303;SDS011;17112;48.636;10.152;2024-03-02T01:11:03;20.45;;;14.77;;
30303;SDS011;17112;48.636;10.152;2024-03-02T01:13:30;22.10;;;14.07;;
30303;SDS011;17112;48.636;10.152;2024-03-02T01:15:56;26.00;;;16.50;;
30303;SDS011;17112;48.636;10.152;2024-03-02T01:18:22;28.10;;;16.38;;
30303;SDS011;17112;48.636;10.152;2024-03-02T01:20:48;27.05;;;16.02;;
30303;SDS011;17112;48.636;10.152;2024-03-02T01:23:17;24.80;;;15.20;;
30303;SDS011;17112;48.636;10.152;2024-03-02T01:25:44;21.50;;;15.23;;
30303;SDS011;17112;48.636;10.152;2024-03-02T01:28:11;21.88;;;15.23;;
30303;SDS011;17112;48.636;10.152;2024-03-02T01:30:36;19.70;;;13.70;;
30303;SDS011;17112;48.636;10.152;2024-03-02T01:33:02;19.63;;;14.48;;
30303;SDS011;17112;48.636;10.152;2024-03-02T01:35:30;21.45;;;14.73;;
30303;SDS011;17112;48.636;10.152;2024-03-02T01:37:56;24.52;;;15.70;;
30303;SDS011;17112;48.636;10.152;2024-03-02T01:40:22;21.60;;;15.00;;
30303;SDS011;17112;48.636;10.152;2024-03-02T01:42:51;19.95;;;14.43;;
30303;SDS011;17112;48.636;10.152;2024-03-02T01:45:18;21.92;;;15.63;;
30303;SDS011;17112;48.636;10.152;2024-03-02T01:47:43;22.70;;;15.05;;
30303;SDS011;17112;48.636;10.152;2024-03-02T01:50:10;23.75;;;15.43;;
30303;SDS011;17112;48.636;10.152;2024-03-02T01:52:36;23.70;;;14.63;;
30303;SDS011;17112;48.636;10.152;2024-03-02T01:55:02;25.70;;;15.50;;
30303;SDS011;17112;48.636;10.152;2024-03-02T01:57:29;24.05;;;14.95;;
30303;SDS011;17112;48.636;10.152;2024-03-02T01:59:55;23.70;;;15.77;;
30303;SDS011;17112;48.636;10.152;2024-03-02T02:02:21;22.85;;;15.68;;
30303;SDS011;17112;48.636;10.152;2024-03-02T02:04:46;23.38;;;15.93;;
30303;SDS011;17112;48.636;10.152;2024-03-02T02:07:12;21.38;;;15.30;;
30303;SDS011;17112;48.636;10.152;2024-03-02T02:09:40;23.58;;;15.48;;
30303;SDS011;17112;48.636;10.152;2024-03-02T02:12:07;24.33;;;16.08;;
30303;SDS011;17112;48.636;10.152;2024-03-02T02:14:33;24.52;;;15.55;;
30303;SDS011;17112;48.636;10.152;2024-03-02T02:16:59;26.40;;;16.80;;
30303;SDS011;17112;48.636;10.152;2024-03-02T02:19:25;25.85;;;16.98;;
30303;SDS011;17112;48.636;10.152;2024-03-02T02:21:50;25.70;;;16.38;;
30303;SDS011;17112;48.636;10.152;2024-03-02T02:24:16;26.67;;;17.30;;
30303;SDS011;17112;48.636;10.152;2024-03-02T02:26:42;27.02;;;17.10;;
30303;SDS011;17112;48.636;10.152;2024-03-02T02:29:07;25.90;;;16.52;;
30303;SDS011;17112;48.636;10.152;2024-03-02T02:31:39;25.20;;;16.30;;
30303;SDS011;17112;48.636;10.152;2024-03-02T02:34:06;26.35;;;17.15;;
30303;SDS011;17112;48.636;10.152;2024-03-02T02:36:32;25.90;;;15.98;;
30303;SDS011;17112;48.636;10.152;2024-03-02T02:38:59;28.05;;;17.67;;
30303;SDS011;17112;48.636;10.152;2024-03-02T02:41:28;26.55;;;16.90;;
30303;SDS011;17112;48.636;10.152;2024-03-02T02:43:54;24.55;;;16.42;;
30303;SDS011;17112;48.636;10.152;2024-03-02T02:46:20;26.13;;;17.55;;
30303;SDS011;17112;48.636;10.152;2024-03-02T02:48:46;27.67;;;17.92;;
30303;SDS011;17112;48.636;10.152;2024-03-02T02:51:11;26.88;;;17.98;;
30303;SDS011;17112;48.636;10.152;2024-03-02T02:53:37;25.88;;;17.05;;
30303;SDS011;17112;48.636;10.152;2024-03-02T02:56:05;29.70;;;17.50;;
30303;SDS011;17112;48.636;10.152;2024-03-02T02:58:31;28.75;;;18.40;;
30303;SDS011;17112;48.636;10.152;2024-03-02T03:00:57;31.60;;;19.23;;
30303;SDS011;17112;48.636;10.152;2024-03-02T03:03:23;28.70;;;18.30;;
30303;SDS011;17112;48.636;10.152;2024-03-02T03:05:48;26.83;;;17.98;;
30303;SDS011;17112;48.636;10.152;2024-03-02T03:08:14;32.15;;;19.10;;
30303;SDS011;17112;48.636;10.152;2024-03-02T03:10:41;28.73;;;18.80;;
30303;SDS011;17112;48.636;10.152;2024-03-02T03:13:07;28.02;;;18.40;;
30303;SDS011;17112;48.636;10.152;2024-03-02T03:15:34;32.35;;;19.25;;
30303;SDS011;17112;48.636;10.152;2024-03-02T03:18:01;31.95;;;19.63;;
30303;SDS011;17112;48.636;10.152;2024-03-02T03:20:28;33.08;;;18.77;;
30303;SDS011;17112;48.636;10.152;2024-03-02T03:22:54;30.50;;;18.67;;
30303;SDS011;17112;48.636;10.152;2024-03-02T03:25:20;28.60;;;18.42;;
30303;SDS011;17112;48.636;10.152;2024-03-02T03:27:46;26.65;;;18.20;;
30303;SDS011;17112;48.636;10.152;2024-03-02T03:30:12;30.05;;;18.13;;
30303;SDS011;17112;48.636;10.152;2024-03-02T03:32:38;32.45;;;18.70;;
30303;SDS011;17112;48.636;10.152;2024-03-02T03:35:04;29.30;;;18.95;;
30303;SDS011;17112;48.636;10.152;2024-03-02T03:37:31;33.30;;;19.70;;
30303;SDS011;17112;48.636;10.152;2024-03-02T03:39:58;32.47;;;19.50;;
30303;SDS011;17112;48.636;10.152;2024-03-02T03:42:24;29.55;;;19.02;;
30303;SDS011;17112;48.636;10.152;2024-03-02T03:44:51;32.13;;;19.33;;
30303;SDS011;17112;48.636;10.152;2024-03-02T03:47:16;25.67;;;16.33;;
30303;SDS011;17112;48.636;10.152;2024-03-02T03:49:42;28.08;;;17.95;;
30303;SDS011;17112;48.636;10.152;2024-03-02T03:52:08;25.38;;;16.80;;
30303;SDS011;17112;48.636;10.152;2024-03-02T03:54:33;24.35;;;16.50;;
30303;SDS011;17112;48.636;10.152;2024-03-02T03:56:59;27.33;;;15.80;;
30303;SDS011;17112;48.636;10.152;2024-03-02T03:59:25;26.85;;;17.27;;
30303;SDS011;17112;48.636;10.152;2024-03-02T04:01:50;25.90;;;17.10;;
30303;SDS011;17112;48.636;10.152;2024-03-02T04:04:16;29.60;;;18.17;;
30303;SDS011;17112;48.636;10.152;2024-03-02T04:06:42;28.88;;;17.83;;
30303;SDS011;17112;48.636;10.152;2024-03-02T04:09:07;35.80;;;18.38;;
30303;SDS011;17112;48.636;10.152;2024-03-02T04:11:33;27.15;;;16.70;;
30303;SDS011;17112;48.636;10.152;2024-03-02T04:13:59;27.85;;;16.92;;
30303;SDS011;17112;48.636;10.152;2024-03-02T04:16:24;27.30;;;17.77;;
30303;SDS011;17112;48.636;10.152;2024-03-02T04:18:50;27.90;;;17.77;;
30303;SDS011;17112;48.636;10.152;2024-03-02T04:21:16;29.42;;;16.70;;
30303;SDS011;17112;48.636;10.152;2024-03-02T04:23:41;28.73;;;18.10;;
30303;SDS011;17112;48.636;10.152;2024-03-02T04:26:07;31.08;;;18.85;;
30303;SDS011;17112;48.636;10.152;2024-03-02T04:28:33;32.67;;;18.85;;
30303;SDS011;17112;48.636;10.152;2024-03-02T04:30:58;28.67;;;17.90;;
30303;SDS011;17112;48.636;10.152;2024-03-02T04:33:24;27.90;;;18.08;;
30303;SDS011;17112;48.636;10.152;2024-03-02T04:35:50;36.40;;;18.80;;
30303;SDS011;17112;48.636;10.152;2024-03-02T04:38:15;28.02;;;18.15;;
30303;SDS011;17112;48.636;10.152;2024-03-02T04:40:41;40.15;;;19.35;;
30303;SDS011;17112;48.636;10.152;2024-03-02T04:43:07;38.58;;;17.70;;
30303;SDS011;17112;48.636;10.152;2024-03-02T04:45:34;36.03;;;17.75;;
30303;SDS011;17112;48.636;10.152;2024-03-02T04:48:04;35.95;;;20.05;;
30303;SDS011;17112;48.636;10.152;2024-03-02T04:50:30;34.90;;;19.85;;
30303;SDS011;17112;48.636;10.152;2024-03-02T04:52:55;39.35;;;19.75;;
30303;SDS011;17112;48.636;10.152;2024-03-02T04:55:21;44.03;;;20.88;;
30303;SDS011;17112;48.636;10.152;2024-03-02T04:58:09;38.83;;;19.48;;
30303;SDS011;17112;48.636;10.152;2024-03-02T05:00:35;41.47;;;19.25;;
30303;SDS011;17112;48.636;10.152;2024-03-02T05:03:01;37.45;;;19.88;;
30303;SDS011;17112;48.636;10.152;2024-03-02T05:05:28;46.50;;;18.45;;
30303;SDS011;17112;48.636;10.152;2024-03-02T05:07:54;35.58;;;20.88;;
30303;SDS011;17112;48.636;10.152;2024-03-02T05:10:19;41.85;;;19.02;;
30303;SDS011;17112;48.636;10.152;2024-03-02T05:12:45;37.38;;;19.15;;
30303;SDS011;17112;48.636;10.152;2024-03-02T05:15:11;35.38;;;19.00;;
30303;SDS011;17112;48.636;10.152;2024-03-02T05:17:40;39.30;;;21.13;;
30303;SDS011;17112;48.636;10.152;2024-03-02T05:20:09;47.92;;;21.52;;
30303;SDS011;17112;48.636;10.152;2024-03-02T05:22:36;48.03;;;22.77;;
30303;SDS011;17112;48.636;10.152;2024-03-02T05:25:02;47.90;;;22.80;;
30303;SDS011;17112;48.636;10.152;2024-03-02T05:27:29;46.38;;;23.55;;
30303;SDS011;17112;48.636;10.152;2024-03-02T05:29:55;42.25;;;22.05;;
30303;SDS011;17112;48.636;10.152;2024-03-02T05:32:21;40.65;;;21.77;;
30303;SDS011;17112;48.636;10.152;2024-03-02T05:34:47;42.70;;;21.92;;
30303;SDS011;17112;48.636;10.152;2024-03-02T05:37:12;49.72;;;21.35;;
30303;SDS011;17112;48.636;10.152;2024-03-02T05:39:38;38.70;;;20.00;;
30303;SDS011;17112;48.636;10.152;2024-03-02T05:42:04;38.95;;;19.20;;
30303;SDS011;17112;48.636;10.152;2024-03-02T05:44:33;40.63;;;18.90;;
30303;SDS011;17112;48.636;10.152;2024-03-02T05:47:03;32.10;;;18.45;;
30303;SDS011;17112;48.636;10.152;2024-03-02T05:49:30;39.08;;;20.75;;
30303;SDS011;17112;48.636;10.152;2024-03-02T05:51:56;38.13;;;20.40;;
30303;SDS011;17112;48.636;10.152;2024-03-02T05:54:22;34.05;;;18.73;;
30303;SDS011;17112;48.636;10.152;2024-03-02T05:56:47;42.83;;;20.83;;
30303;SDS011;17112;48.636;10.152;2024-03-02T05:59:13;48.30;;;19.98;;
30303;SDS011;17112;48.636;10.152;2024-03-02T06:01:42;48.85;;;22.27;;
30303;SDS011;17112;48.636;10.152;2024-03-02T06:04:09;49.15;;;21.90;;
30303;SDS011;17112;48.636;10.152;2024-03-02T06:06:36;49.88;;;20.35;;
30303;SDS011;17112;48.636;10.152;2024-03-02T06:09:02;41.47;;;20.35;;
30303;SDS011;17112;48.636;10.152;2024-03-02T06:11:36;53.75;;;21.83;;
30303;SDS011;17112;48.636;10.152;2024-03-02T06:14:02;40.70;;;20.85;;
30303;SDS011;17112;48.636;10.152;2024-03-02T06:16:32;43.08;;;19.90;;
30303;SDS011;17112;48.636;10.152;2024-03-02T06:18:58;45.65;;;18.63;;
30303;SDS011;17112;48.636;10.152;2024-03-02T06:21:24;41.17;;;18.85;;
30303;SDS011;17112;48.636;10.152;2024-03-02T06:23:50;41.83;;;19.77;;
30303;SDS011;17112;48.636;10.152;2024-03-02T06:26:16;38.95;;;18.60;;
30303;SDS011;17112;48.636;10.152;2024-03-02T06:28:43;36.78;;;19.75;;
30303;SDS011;17112;48.636;10.152;2024-03-02T06:31:09;41.20;;;19.98;;
30303;SDS011;17112;48.636;10.152;2024-03-02T06:33:35;50.55;;;20.55;;
30303;SDS011;17112;48.636;10.152;2024-03-02T06:36:01;48.10;;;19.77;;
30303;SDS011;17112;48.636;10.152;2024-03-02T06:38:27;37.20;;;18.92;;
30303;SDS011;17112;48.636;10.152;2024-03-02T06:40:52;31.90;;;17.35;;
30303;SDS011;17112;48.636;10.152;2024-03-02T06:43:19;32.80;;;18.15;;
30303;SDS011;17112;48.636;10.152;2024-03-02T06:45:48;44.45;;;18.80;;
30303;SDS011;17112;48.636;10.152;2024-03-02T06:48:17;42.90;;;19.27;;
30303;SDS011;17112;48.636;10.152;2024-03-02T06:50:48;35.10;;;18.00;;
30303;SDS011;17112;48.636;10.152;2024-03-02T06:53:14;41.55;;;19.42;;
30303;SDS011;17112;48.636;10.152;2024-03-02T06:55:44;38.83;;;18.70;;
30303;SDS011;17112;48.636;10.152;2024-03-02T06:58:11;35.13;;;17.08;;
30303;SDS011;17112;48.636;10.152;2024-03-02T07:00:37;31.95;;;17.05;;
30303;SDS011;17112;48.636;10.152;2024-03-02T07:03:03;33.53;;;17.60;;
30303;SDS011;17112;48.636;10.152;2024-03-02T07:05:29;40.53;;;18.65;;
30303;SDS011;17112;48.636;10.152;2024-03-02T07:07:55;28.55;;;16.48;;
30303;SDS011;17112;48.636;10.152;2024-03-02T07:10:20;24.60;;;14.63;;
30303;SDS011;17112;48.636;10.152;2024-03-02T07:12:46;19.05;;;12.88;;
30303;SDS011;17112;48.636;10.152;2024-03-02T07:15:11;17.05;;;11.85;;
30303;SDS011;17112;48.636;10.152;2024-03-02T07:17:54;16.27;;;11.43;;
30303;SDS011;17112;48.636;10.152;2024-03-02T07:20:20;18.75;;;12.38;;
30303;SDS011;17112;48.636;10.152;2024-03-02T07:22:46;18.02;;;12.55;;
30303;SDS011;17112;48.636;10.152;2024-03-02T07:25:11;18.80;;;12.68;;
30303;SDS011;17112;48.636;10.152;2024-03-02T07:27:38;17.10;;;12.35;;
30303;SDS011;17112;48.636;10.152;2024-03-02T07:30:04;25.25;;;12.52;;
30303;SDS011;17112;48.636;10.152;2024-03-02T07:32:30;18.20;;;12.68;;
30303;SDS011;17112;48.636;10.152;2024-03-02T07:34:56;18.60;;;11.85;;
30303;SDS011;17112;48.636;10.152;2024-03-02T07:37:22;21.65;;;12.88;;
30303;SDS011;17112;48.636;10.152;2024-03-02T07:39:49;19.52;;;13.02;;
30303;SDS011;17112;48.636;10.152;2024-03-02T07:42:15;20.35;;;13.18;;
30303;SDS011;17112;48.636;10.152;2024-03-02T07:44:46;21.25;;;14.23;;
30303;SDS011;17112;48.636;10.152;2024-03-02T07:47:11;17.30;;;12.75;;
30303;SDS011;17112;48.636;10.152;2024-03-02T07:49:38;18.45;;;12.93;;
30303;SDS011;17112;48.636;10.152;2024-03-02T07:52:04;21.52;;;13.63;;
30303;SDS011;17112;48.636;10.152;2024-03-02T07:54:29;18.42;;;13.15;;
30303;SDS011;17112;48.636;10.152;2024-03-02T07:56:55;17.80;;;12.55;;
30303;SDS011;17112;48.636;10.152;2024-03-02T07:59:21;18.65;;;11.90;;
30303;SDS011;17112;48.636;10.152;2024-03-02T08:01:48;17.48;;;12.25;;
30303;SDS011;17112;48.636;10.152;2024-03-02T08:04:15;17.30;;;11.88;;
30303;SDS011;17112;48.636;10.152;2024-03-02T08:06:41;18.45;;;12.52;;
30303;SDS011;17112;48.636;10.152;2024-03-02T08:09:06;17.95;;;12.40;;
30303;SDS011;17112;48.636;10.152;2024-03-02T08:11:35;16.48;;;11.50;;
30303;SDS011;17112;48.636;10.152;2024-03-02T08:14:01;16.65;;;12.23;;
30303;SDS011;17112;48.636;10.152;2024-03-02T08:16:26;15.40;;;10.45;;
30303;SDS011;17112;48.636;10.152;2024-03-02T08:18:52;15.43;;;10.73;;
30303;SDS011;17112;48.636;10.152;2024-03-02T08:21:18;15.10;;;10.70;;
30303;SDS011;17112;48.636;10.152;2024-03-02T08:23:44;15.25;;;11.15;;
30303;SDS011;17112;48.636;10.152;2024-03-02T08:26:10;14.00;;;10.40;;
30303;SDS011;17112;48.636;10.152;2024-03-02T08:28:37;14.65;;;10.73;;
30303;SDS011;17112;48.636;10.152;2024-03-02T08:31:03;16.83;;;10.90;;
30303;SDS011;17112;48.636;10.152;2024-03-02T08:33:29;14.27;;;10.63;;
30303;SDS011;17112;48.636;10.152;2024-03-02T08:35:55;13.38;;;10.25;;
30303;SDS011;17112;48.636;10.152;2024-03-02T08:38:21;14.68;;;10.55;;
30303;SDS011;17112;48.636;10.152;2024-03-02T08:40:48;14.05;;;10.88;;
30303;SDS011;17112;48.636;10.152;2024-03-02T08:43:14;14.75;;;10.68;;
30303;SDS011;17112;48.636;10.152;2024-03-02T08:45:40;16.20;;;11.23;;
30303;SDS011;17112;48.636;10.152;2024-03-02T08:48:09;16.52;;;11.20;;
30303;SDS011;17112;48.636;10.152;2024-03-02T08:50:35;14.57;;;11.10;;
30303;SDS011;17112;48.636;10.152;2024-03-02T08:53:02;14.55;;;11.40;;
30303;SDS011;17112;48.636;10.152;2024-03-02T08:55:31;15.55;;;10.32;;
30303;SDS011;17112;48.636;10.152;2024-03-02T08:57:56;13.02;;;9.80;;
30303;SDS011;17112;48.636;10.152;2024-03-02T09:00:22;13.38;;;9.85;;
30303;SDS011;17112;48.636;10.152;2024-03-02T09:02:48;13.93;;;10.27;;
30303;SDS011;17112;48.636;10.152;2024-03-02T09:05:14;13.40;;;9.50;;
30303;SDS011;17112;48.636;10.152;2024-03-02T09:07:40;11.45;;;9.38;;
30303;SDS011;17112;48.636;10.152;2024-03-02T09:10:06;11.00;;;9.10;;
30303;SDS011;17112;48.636;10.152;2024-03-02T09:12:33;11.20;;;9.27;;
30303;SDS011;17112;48.636;10.152;2024-03-02T09:15:00;10.93;;;8.90;;
30303;SDS011;17112;48.636;10.152;2024-03-02T09:17:26;10.90;;;9.43;;
30303;SDS011;17112;48.636;10.152;2024-03-02T09:19:52;11.30;;;8.98;;
30303;SDS011;17112;48.636;10.152;2024-03-02T09:22:18;12.15;;;9.20;;
30303;SDS011;17112;48.636;10.152;2024-03-02T09:24:44;12.60;;;9.20;;
30303;SDS011;17112;48.636;10.152;2024-03-02T09:27:10;12.40;;;9.07;;
30303;SDS011;17112;48.636;10.152;2024-03-02T09:29:36;12.95;;;8.93;;
30303;SDS011;17112;48.636;10.152;2024-03-02T09:32:02;13.93;;;9.88;;
30303;SDS011;17112;48.636;10.152;2024-03-02T09:34:28;13.77;;;9.65;;
30303;SDS011;17112;48.636;10.152;2024-03-02T09:36:53;14.70;;;9.77;;
30303;SDS011;17112;48.636;10.152;2024-03-02T09:39:19;12.57;;;9.25;;
30303;SDS011;17112;48.636;10.152;2024-03-02T09:41:45;15.70;;;11.52;;
30303;SDS011;17112;48.636;10.152;2024-03-02T09:44:11;12.48;;;9.30;;
30303;SDS011;17112;48.636;10.152;2024-03-02T09:46:37;15.02;;;11.10;;
30303;SDS011;17112;48.636;10.152;2024-03-02T09:49:04;13.02;;;9.40;;
30303;SDS011;17112;48.636;10.152;2024-03-02T09:51:31;13.82;;;10.00;;
30303;SDS011;17112;48.636;10.152;2024-03-02T09:53:56;11.75;;;9.57;;
30303;SDS011;17112;48.636;10.152;2024-03-02T09:56:22;10.20;;;8.82;;
30303;SDS011;17112;48.636;10.152;2024-03-02T09:58:48;11.55;;;8.82;;
30303;SDS011;17112;48.636;10.152;2024-03-02T10:01:14;12.48;;;9.55;;
30303;SDS011;17112;48.636;10.152;2024-03-02T10:03:39;16.67;;;9.32;;
30303;SDS011;17112;48.636;10.152;2024-03-02T10:08:50;11.50;;;8.90;;
30303;SDS011;17112;48.636;10.152;2024-03-02T10:11:26;12.90;;;9.60;;
30303;SDS011;17112;48.636;10.152;2024-03-02T10:14:06;12.27;;;9.07;;
30303;SDS011;17112;48.636;10.152;2024-03-02T10:16:41;12.25;;;8.57;;
30303;SDS011;17112;48.636;10.152;2024-03-02T10:19:24;13.07;;;9.48;;
30303;SDS011;17112;48.636;10.152;2024-03-02T10:21:52;10.25;;;7.97;;
30303;SDS011;17112;48.636;10.152;2024-03-02T10:24:19;15.23;;;9.00;;
30303;SDS011;17112;48.636;10.152;2024-03-02T10:26:46;10.43;;;8.27;;
30303;SDS011;17112;48.636;10.152;2024-03-02T10:29:12;11.63;;;8.80;;
30303;SDS011;17112;48.636;10.152;2024-03-02T10:31:38;11.10;;;8.75;;
30303;SDS011;17112;48.636;10.152;2024-03-02T10:34:06;12.07;;;9.25;;
30303;SDS011;17112;48.636;10.152;2024-03-02T10:36:33;9.85;;;8.18;;
30303;SDS011;17112;48.636;10.152;2024-03-02T10:39:03;11.02;;;8.98;;
30303;SDS011;17112;48.636;10.152;2024-03-02T10:41:33;10.02;;;8.20;;
30303;SDS011;17112;48.636;10.152;2024-03-02T10:44:03;28.60;;;17.17;;
30303;SDS011;17112;48.636;10.152;2024-03-02T10:46:34;16.88;;;11.50;;
30303;SDS011;17112;48.636;10.152;2024-03-02T10:49:02;14.82;;;9.88;;
30303;SDS011;17112;48.636;10.152;2024-03-02T10:51:29;11.52;;;8.55;;
30303;SDS011;17112;48.636;10.152;2024-03-02T10:54:01;10.93;;;8.25;;
30303;SDS011;17112;48.636;10.152;2024-03-02T10:56:29;10.43;;;8.35;;
30303;SDS011;17112;48.636;10.152;2024-03-02T11:01:37;9.50;;;7.93;;
30303;SDS011;17112;48.636;10.152;2024-03-02T11:04:04;11.23;;;8.65;;
30303;SDS011;17112;48.636;10.152;2024-03-02T11:06:34;11.10;;;8.73;;
30303;SDS011;17112;48.636;10.152;2024-03-02T11:09:05;9.07;;;7.82;;
30303;SDS011;17112;48.636;10.152;2024-03-02T11:11:36;10.45;;;8.13;;
30303;SDS011;17112;48.636;10.152;2024-03-02T11:14:07;10.77;;;7.78;;
30303;SDS011;17112;48.636;10.152;2024-03-02T11:16:38;23.27;;;15.10;;
30303;SDS011;17112;48.636;10.152;2024-03-02T11:19:06;12.82;;;9.45;;
30303;SDS011;17112;48.636;10.152;2024-03-02T11:21:37;13.27;;;8.40;;
30303;SDS011;17112;48.636;10.152;2024-03-02T11:26:47;10.02;;;8.15;;
30303;SDS011;17112;48.636;10.152;2024-03-02T11:32:04;9.30;;;6.85;;
30303;SDS011;17112;48.636;10.152;2024-03-02T11:34:41;7.65;;;6.57;;
30303;SDS011;17112;48.636;10.152;2024-03-02T11:37:15;9.18;;;6.88;;
30303;SDS011;17112;48.636;10.152;2024-03-02T11:39:49;10.02;;;6.28;;
30303;SDS011;17112;48.636;10.152;2024-03-02T11:42:17;8.52;;;6.70;;
30303;SDS011;17112;48.636;10.152;2024-03-02T11:47:34;7.55;;;5.95;;
30303;SDS011;17112;48.636;10.152;2024-03-02T11:50:00;8.95;;;6.88;;
30303;SDS011;17112;48.636;10.152;2024-03-02T11:52:26;9.35;;;7.45;;
30303;SDS011;17112;48.636;10.152;2024-03-02T11:54:53;11.70;;;7.38;;
30303;SDS011;17112;48.636;10.152;2024-03-02T11:57:20;8.50;;;7.03;;
30303;SDS011;17112;48.636;10.152;2024-03-02T11:59:52;8.50;;;6.95;;
30303;SDS011;17112;48.636;10.152;2024-03-02T12:02:18;7.10;;;6.13;;
30303;SDS011;17112;48.636;10.152;2024-03-02T12:04:45;6.88;;;5.13;;
30303;SDS011;17112;48.636;10.152;2024-03-02T12:07:18;7.60;;;5.82;;
30303;SDS011;17112;48.636;10.152;2024-03-02T12:09:48;6.07;;;5.05;;
30303;SDS011;17112;48.636;10.152;2024-03-02T12:12:24;5.70;;;4.78;;
30303;SDS011;17112;48.636;10.152;2024-03-02T12:14:50;4.40;;;3.90;;
30303;SDS011;17112;48.636;10.152;2024-03-02T12:17:18;4.97;;;4.50;;
30303;SDS011;17112;48.636;10.152;2024-03-02T12:19:44;7.25;;;6.40;;
30303;SDS011;17112;48.636;10.152;2024-03-02T12:22:11;5.53;;;5.03;;
30303;SDS011;17112;48.636;10.152;2024-03-02T12:24:37;6.38;;;4.70;;
30303;SDS011;17112;48.636;10.152;2024-03-02T12:27:03;5.72;;;5.10;;
30303;SDS011;17112;48.636;10.152;2024-03-02T12:29:30;5.80;;;5.20;;
30303;SDS011;17112;48.636;10.152;2024-03-02T12:31:56;6.38;;;5.05;;
30303;SDS011;17112;48.636;10.152;2024-03-02T12:34:22;5.07;;;4.57;;
30303;SDS011;17112;48.636;10.152;2024-03-02T12:36:48;6.07;;;4.90;;
30303;SDS011;17112;48.636;10.152;2024-03-02T12:39:18;6.22;;;4.95;;
30303;SDS011;17112;48.636;10.152;2024-03-02T12:41:44;6.85;;;5.00;;
30303;SDS011;17112;48.636;10.152;2024-03-02T12:44:11;6.03;;;5.07;;
30303;SDS011;17112;48.636;10.152;2024-03-02T12:46:36;9.02;;;4.20;;
30303;SDS011;17112;48.636;10.152;2024-03-02T12:49:09;5.68;;;4.78;;
30303;SDS011;17112;48.636;10.152;2024-03-02T12:51:36;5.13;;;4.47;;
30303;SDS011;17112;48.636;10.152;2024-03-02T12:54:08;6.15;;;4.57;;
30303;SDS011;17112;48.636;10.152;2024-03-02T12:56:36;7.50;;;4.97;;
30303;SDS011;17112;48.636;10.152;2024-03-02T12:59:02;8.75;;;4.85;;
30303;SDS011;17112;48.636;10.152;2024-03-02T13:01:29;7.60;;;5.90;;
30303;SDS011;17112;48.636;10.152;2024-03-02T13:03:55;6.00;;;4.75;;
30303;SDS011;17112;48.636;10.152;2024-03-02T13:06:23;4.85;;;4.43;;
30303;SDS011;17112;48.636;10.152;2024-03-02T13:08:52;4.85;;;4.35;;
30303;SDS011;17112;48.636;10.152;2024-03-02T13:11:21;7.63;;;5.68;;
30303;SDS011;17112;48.636;10.152;2024-03-02T13:13:50;6.95;;;5.40;;
30303;SDS011;17112;48.636;10.152;2024-03-02T13:16:16;5.80;;;4.20;;
30303;SDS011;17112;48.636;10.152;2024-03-02T13:18:44;4.78;;;4.13;;
30303;SDS011;17112;48.636;10.152;2024-03-02T13:21:10;5.07;;;4.22;;
30303;SDS011;17112;48.636;10.152;2024-03-02T13:23:36;6.47;;;3.88;;
30303;SDS011;17112;48.636;10.152;2024-03-02T13:26:02;7.60;;;4.07;;
30303;SDS011;17112;48.636;10.152;2024-03-02T13:28:27;4.15;;;3.72;;
30303;SDS011;17112;48.636;10.152;2024-03-02T13:30:53;6.40;;;4.32;;
30303;SDS011;17112;48.636;10.152;2024-03-02T13:33:19;5.03;;;3.72;;
30303;SDS011;17112;48.636;10.152;2024-03-02T13:35:50;4.18;;;3.78;;
30303;SDS011;17112;48.636;10.152;2024-03-02T13:38:18;6.35;;;3.78;;
30303;SDS011;17112;48.636;10.152;2024-03-02T13:40:45;6.20;;;4.55;;
30303;SDS011;17112;48.636;10.152;2024-03-02T13:43:12;5.60;;;4.13;;
30303;SDS011;17112;48.636;10.152;2024-03-02T13:45:38;5.20;;;3.88;;
30303;SDS011;17112;48.636;10.152;2024-03-02T13:48:04;5.13;;;3.97;;
30303;SDS011;17112;48.636;10.152;2024-03-02T13:50:31;4.65;;;3.60;;
30303;SDS011;17112;48.636;10.152;2024-03-02T13:52:57;3.97;;;3.53;;
30303;SDS011;17112;48.636;10.152;2024-03-02T13:55:22;4.80;;;3.90;;
30303;SDS011;17112;48.636;10.152;2024-03-02T13:57:48;5.22;;;4.10;;
30303;SDS011;17112;48.636;10.152;2024-03-02T14:00:15;6.05;;;4.63;;
30303;SDS011;17112;48.636;10.152;2024-03-02T14:02:45;4.72;;;4.22;;
30303;SDS011;17112;48.636;10.152;2024-03-02T14:05:11;4.50;;;4.00;;
30303;SDS011;17112;48.636;10.152;2024-03-02T14:07:38;5.18;;;4.20;;
30303;SDS011;17112;48.636;10.152;2024-03-02T14:10:05;5.15;;;4.43;;
30303;SDS011;17112;48.636;10.152;2024-03-02T14:12:31;6.65;;;4.57;;
30303;SDS011;17112;48.636;10.152;2024-03-02T14:14:57;4.90;;;4.40;;
30303;SDS011;17112;48.636;10.152;2024-03-02T14:17:24;5.43;;;4.65;;
30303;SDS011;17112;48.636;10.152;2024-03-02T14:19:50;5.93;;;4.93;;
30303;SDS011;17112;48.636;10.152;2024-03-02T14:22:17;6.20;;;5.25;;
30303;SDS011;17112;48.636;10.152;2024-03-02T14:24:43;5.93;;;5.15;;
30303;SDS011;17112;48.636;10.152;2024-03-02T14:27:09;8.07;;;6.10;;
30303;SDS011;17112;48.636;10.152;2024-03-02T14:29:34;8.95;;;6.20;;
30303;SDS011;17112;48.636;10.152;2024-03-02T14:32:02;7.25;;;5.50;;
30303;SDS011;17112;48.636;10.152;2024-03-02T14:34:28;6.95;;;5.78;;
30303;SDS011;17112;48.636;10.152;2024-03-02T14:36:54;7.57;;;5.72;;
30303;SDS011;17112;48.636;10.152;2024-03-02T14:39:20;6.63;;;5.30;;
30303;SDS011;17112;48.636;10.152;2024-03-02T14:41:47;7.72;;;6.07;;